LOWILXGB

Guest
Details From LOWI - Innsbruck Kranebitten
To LXGB - Gibraltar
Flight Number -
Tags Generated
Created
Modified
Stats Distance 1,007 nm / 1,865 km
Max Altitude 0 ft / 0 m
Waypoints 6
Social Downloads 5
Likes 0
Share VATSIM

Download

Looking for another format? Having issues loading an existing format? Contact us
Advertisement - Login to hide

Notes

Generated

Route

LOWI TOSMI POBIL VAB BRIKE LXGB

ID Type Via Altitude Latitude Longitude Leg Dist Tot Dist Heading (true) Name
O LOWI APT - 0 ft / 0 m 47.25883˚ 11.33091˚ - 0 nm - -
TOSMI FIX - 0 ft / 0 m 44.99389˚ 6.98222˚ 226 nm 226 nm 235° / 232° -
POBIL FIX - 0 ft / 0 m 41.75967˚ 1.82061˚ 297 nm 523 nm 231° / 227° -
VAB VOR - 0 ft / 0 m 38.94381˚ -2.00267˚ 243 nm 767 nm 227° / 225° ALBACETE VOR-DME
BRIKE FIX - 0 ft / 0 m 36.50478˚ -5.41645˚ 218 nm 985 nm 229° / 227° -
O LXGB APT - 0 ft / 0 m 36.15080˚ -5.35977˚ 21 nm 1006 nm 173° / 173° -

Altitude Profile

Advertisement - Login to hide

Weather


0- 5 10 15 20 25 30 35+ Temperature / ° C

Clouds and Precipitation
Forecast for 2017-09-23 12:00 UTC. Updated 2 hours ago

Ground ~20,000 ft ~40,000 ft Winds

LOWI

Details ICAO LOWI (INN)
Name Innsbruck Kranebitten
Region Austria
Timezone Europe/Vienna (UTC+2.0)
Stats Elevation 1,906 ft / 581 m (AMSL)
Location 47.260226° 11.343967°
Runways 1
Magnetic Variation 2.992° E

METAR

LOWI 230850Z 26005KT 210V300 9999 FEW070 SCT300 13/08 Q1023 NOSIG

Decode

TAF

TAF TAF LOWI 230515Z 2306/2406 27004KT 9999 FEW010 SCT300 TX19/2314Z TN07/2306Z BECMG 2309/2311 09007KT SCT060 BKN120 TEMPO 2314/2400 SHRA SCT040TCU BKN060 BECMG 2317/2319 VRB02KT BKN050 TEMPO 2400/2406 5000 -RA BR BKN013

Decode

Departure Runways

ID Width Length Bearing (true) Bearing (mag) Surface Threshold Offset Overrun Length
08 148 ft / 45 m 6,545 ft / 1,995 m 81.02° 78.03° Asphalt 338 ft / 103 m 0 ft / 0 m
26 148 ft / 45 m 6,545 ft / 1,995 m 261.04° 258.05° Asphalt 0 ft / 0 m 0 ft / 0 m

LXGB

Details ICAO LXGB (GIB)
Name Gibraltar
Region Gibralter
Timezone Europe/Gibraltar (UTC+2.0)
Stats Elevation 15 ft / 5 m (AMSL)
Location 36.151209° -5.349664°
Runways 1
Magnetic Variation 1.148° W

METAR

LXGB 230850Z 05009KT 9999 FEW018 BKN034 21/17 Q1019 TEMPO SCT018

Decode

TAF

Not found

Destination Runways

ID Width Length Bearing (true) Bearing (mag) Surface Threshold Offset Overrun Length
27 151 ft / 46 m 5,992 ft / 1,826 m 267.56° 268.71° Asphalt 367 ft / 112 m 89 ft / 27 m
9 151 ft / 46 m 5,992 ft / 1,826 m 87.54° 88.69° Asphalt 299 ft / 91 m 52 ft / 16 m

Popular Alternatives